Time;durP1;ratioP1;P1;durP2;ratioP2;P2;SDS_P1;SDS_P2;PMS_P1;PMS_P2;Temp;Humidity;BMP_temperature;BMP_pressure;BME280_temperature;BME280_humidity;BME280_pressure;Samples;Min_cycle;Max_cycle;Signal;HPM_P1;HPM_P2
2022/12/26 08:10:14;;;;;;;21.07;17.73;;;;;;;4.85;100.00;99682.59;6200200;22;20233;-81
2022/12/26 08:12:41;;;;;;;20.70;17.63;;;;;;;4.92;100.00;99696.00;6158969;22;20206;-81
2022/12/26 08:15:10;;;;;;;19.00;16.33;;;;;;;5.04;100.00;99699.84;6159475;22;20218;-82
2022/12/26 08:17:36;;;;;;;18.40;15.90;;;;;;;5.16;100.00;99703.72;6236641;22;20608;-81
2022/12/26 08:20:04;;;;;;;18.10;16.17;;;;;;;5.27;100.00;99713.84;6262180;22;20253;-80
2022/12/26 08:22:30;;;;;;;17.93;16.03;;;;;;;5.33;100.00;99710.47;6161228;22;20214;-81
2022/12/26 08:24:57;;;;;;;18.47;16.47;;;;;;;5.47;100.00;99711.47;6264607;22;20215;-81
2022/12/26 08:27:24;;;;;;;18.63;16.33;;;;;;;5.60;100.00;99708.19;6264194;22;20207;-81
2022/12/26 08:29:52;;;;;;;20.07;16.80;;;;;;;5.72;100.00;99717.31;6262813;22;20206;-81
2022/12/26 08:32:18;;;;;;;18.93;16.10;;;;;;;5.85;100.00;99706.00;6212711;22;20663;-81
2022/12/26 08:34:45;;;;;;;22.00;16.83;;;;;;;5.95;100.00;99718.03;6261992;22;20211;-81
2022/12/26 08:37:12;;;;;;;19.83;16.93;;;;;;;6.01;100.00;99713.78;6262529;22;20256;-81
2022/12/26 08:39:39;;;;;;;20.90;15.90;;;;;;;6.09;100.00;99716.34;6160330;22;20286;-82
2022/12/26 08:42:08;;;;;;;18.97;16.43;;;;;;;6.02;100.00;99702.94;6259085;22;20206;-81
2022/12/26 08:44:34;;;;;;;17.17;15.43;;;;;;;6.09;100.00;99722.47;6243010;22;20208;-81
2022/12/26 08:47:01;;;;;;;18.63;16.57;;;;;;;6.13;100.00;99701.63;6232601;22;20207;-81
2022/12/26 08:49:28;;;;;;;17.40;15.60;;;;;;;6.27;100.00;99706.06;6262492;22;20214;-80
2022/12/26 08:51:55;;;;;;;18.37;16.33;;;;;;;6.30;100.00;99707.56;6160783;22;20233;-81
2022/12/26 08:54:22;;;;;;;17.07;15.27;;;;;;;6.31;100.00;99699.34;6263351;22;20262;-81
2022/12/26 08:56:48;;;;;;;17.57;15.77;;;;;;;6.38;100.00;99697.59;6161355;22;20211;-81
2022/12/26 08:59:15;;;;;;;17.53;15.83;;;;;;;6.48;100.00;99692.78;6264572;22;20211;-82
2022/12/26 09:01:42;;;;;;;15.70;14.20;;;;;;;6.58;100.00;99697.75;6263787;22;20207;-81
2022/12/26 09:04:09;;;;;;;16.77;15.07;;;;;;;6.65;100.00;99695.97;6133998;22;20206;-81
2022/12/26 09:06:37;;;;;;;16.37;14.80;;;;;;;6.77;100.00;99707.72;6160185;22;20211;-81
2022/12/26 09:09:06;;;;;;;17.87;16.13;;;;;;;6.95;100.00;99704.63;6199020;22;20213;-82
2022/12/26 09:11:33;;;;;;;17.43;15.63;;;;;;;7.11;100.00;99703.47;6267393;22;20250;-81
2022/12/26 09:14:01;;;;;;;18.10;16.30;;;;;;;7.16;100.00;99707.19;6252875;22;20275;-81
2022/12/26 09:16:57;;;;;;;16.60;14.90;;;;;;;7.25;100.00;99698.03;6319891;22;20229;-81
2022/12/26 09:19:28;;;;;;;15.50;14.00;;;;;;;7.36;100.00;99694.00;6320771;22;20207;-82
2022/12/26 09:24:49;;;;;;;15.50;14.00;;;;;;;7.49;100.00;99689.56;6273605;22;20203;-82
2022/12/26 09:27:15;;;;;;;16.00;14.40;;;;;;;7.70;100.00;99696.59;6293068;22;20207;-82
2022/12/26 09:29:42;;;;;;;15.37;13.87;;;;;;;7.73;100.00;99679.38;6292808;22;20215;-81
2022/12/26 09:32:09;;;;;;;17.13;15.43;;;;;;;7.89;100.00;99697.69;6318849;22;20203;-81
2022/12/26 09:34:36;;;;;;;22.87;20.03;;;;;;;7.90;100.00;99684.16;6268498;22;20217;-82
2022/12/26 09:37:02;;;;;;;18.57;16.67;;;;;;;7.95;100.00;99686.22;6268314;22;20221;-81
2022/12/26 09:39:29;;;;;;;17.13;15.53;;;;;;;7.91;100.00;99679.66;6264636;22;20203;-81
2022/12/26 09:42:14;;;;;;;16.13;14.53;;;;;;;8.15;100.00;99686.28;6287551;22;20607;-81
2022/12/26 09:44:46;;;;;;;16.67;15.10;;;;;;;8.27;100.00;99671.28;6286240;22;20217;-81
2022/12/26 09:47:18;;;;;;;16.50;14.90;;;;;;;8.35;100.00;99669.28;6287765;22;20573;-82
2022/12/26 09:49:55;;;;;;;15.23;13.83;;;;;;;8.31;100.00;99664.56;6314480;22;20207;-81
2022/12/26 09:52:35;;;;;;;14.73;13.33;;;;;;;8.29;100.00;99672.78;6313880;22;20766;-81
2022/12/26 09:55:13;;;;;;;14.53;13.13;;;;;;;8.33;100.00;99667.84;6314650;22;20206;-81
2022/12/26 09:57:45;;;;;;;14.90;13.50;;;;;;;8.35;100.00;99655.94;6288676;22;20203;-81
2022/12/26 10:00:32;;;;;;;15.53;14.03;;;;;;;8.40;100.00;99663.31;6233636;22;20210;-82
2022/12/26 10:02:59;;;;;;;16.70;14.90;;;;;;;8.43;100.00;99651.44;6312834;22;20207;-81
2022/12/26 10:05:31;;;;;;;18.27;16.47;;;;;;;8.36;100.00;99646.91;6313941;22;20283;-83
2022/12/26 10:08:17;;;;;;;17.40;15.70;;;;;;;8.48;100.00;99641.78;6261937;22;20203;-82
2022/12/26 10:10:56;;;;;;;16.97;15.37;;;;;;;8.55;100.00;99653.28;6314360;22;20207;-81
2022/12/26 10:13:32;;;;;;;16.77;15.13;;;;;;;8.61;100.00;99655.13;6284626;22;20280;-81
2022/12/26 10:16:08;;;;;;;17.30;15.70;;;;;;;8.66;100.00;99649.16;6318070;22;20225;-82
2022/12/26 10:18:57;;;;;;;17.80;16.10;;;;;;;8.74;100.00;99643.59;6267232;22;20207;-81
2022/12/26 10:21:35;;;;;;;17.70;15.87;;;;;;;8.84;100.00;99639.50;6316150;22;20211;-82
2022/12/26 10:24:14;;;;;;;17.27;15.67;;;;;;;8.94;100.00;99632.91;6318972;22;20208;-81
2022/12/26 10:26:48;;;;;;;16.73;15.23;;;;;;;8.95;100.00;99615.84;6264034;22;20280;-81
2022/12/26 10:29:22;;;;;;;16.17;14.67;;;;;;;9.05;100.00;99621.56;6289324;22;20207;-82
2022/12/26 10:31:57;;;;;;;16.27;14.77;;;;;;;9.16;100.00;99621.72;6317522;22;20207;-82
2022/12/26 10:34:26;;;;;;;15.73;14.30;;;;;;;9.40;100.00;99635.44;6318843;22;20203;-81
2022/12/26 10:36:58;;;;;;;15.20;13.80;;;;;;;9.42;100.00;99618.16;6317940;22;20211;-81
2022/12/26 10:39:31;;;;;;;14.77;13.37;;;;;;;9.54;100.00;99634.34;6318361;22;20199;-81
2022/12/26 10:42:29;;;;;;;14.40;13.10;;;;;;;9.69;100.00;99637.56;6267060;22;20266;-80
2022/12/26 10:44:57;;;;;;;14.07;12.73;;;;;;;9.75;100.00;99627.88;6291313;22;20256;-82
2022/12/26 10:47:26;;;;;;;15.30;13.90;;;;;;;9.82;100.00;99623.28;6267330;22;20207;-82
2022/12/26 10:49:53;;;;;;;15.07;13.67;;;;;;;9.89;100.00;99619.53;6318942;22;20199;-81
2022/12/26 10:52:29;;;;;;;13.67;12.47;;;;;;;9.94;100.00;99622.38;6268281;22;20211;-81
2022/12/26 10:54:57;;;;;;;13.93;12.63;;;;;;;9.96;100.00;99630.19;6293608;22;20207;-81
2022/12/26 10:57:47;;;;;;;14.53;13.13;;;;;;;10.09;100.00;99614.88;6277756;22;20203;-81
2022/12/26 11:00:18;;;;;;;14.67;13.17;;;;;;;10.24;100.00;99617.28;6292832;22;20208;-81
2022/12/26 11:03:01;;;;;;;16.13;14.63;;;;;;;10.38;100.00;99628.69;6291862;22;20222;-81
2022/12/26 11:05:28;;;;;;;21.07;18.97;;;;;;;10.38;100.00;99616.13;6317116;22;20222;-82
2022/12/26 11:08:27;;;;;;;17.20;15.47;;;;;;;10.43;100.00;99610.94;6268215;22;20277;-82
2022/12/26 11:11:02;;;;;;;16.57;14.97;;;;;;;10.59;100.00;99613.06;6284796;22;20211;-81
2022/12/26 11:13:33;;;;;;;15.77;14.27;;;;;;;10.62;100.00;99601.09;6258315;22;20203;-81
2022/12/26 11:16:00;;;;;;;16.37;14.77;;;;;;;10.76;100.00;99594.56;6285144;22;20203;-82
2022/12/26 11:18:47;;;;;;;15.80;14.40;;;;;;;10.88;100.00;99598.13;6312743;22;20230;-82
2022/12/26 11:21:16;;;;;;;21.27;19.27;;;;;;;10.93;100.00;99605.50;6314296;22;20242;-81
2022/12/26 11:23:48;;;;;;;34.67;31.57;;;;;;;10.94;100.00;99599.13;6316458;22;20176;-81
2022/12/26 11:26:23;;;;;;;16.83;15.30;;;;;;;10.87;100.00;99576.94;6263502;22;20295;-82
2022/12/26 11:29:10;;;;;;;19.37;17.47;;;;;;;10.95;100.00;99582.00;6262653;22;20552;-82
2022/12/26 11:31:38;;;;;;;16.60;15.20;;;;;;;10.90;100.00;99576.47;6265493;22;20229;-81
2022/12/26 11:34:16;;;;;;;17.87;16.20;;;;;;;11.00;100.00;99582.97;6289754;22;20203;-81
2022/12/26 11:36:46;;;;;;;17.47;15.80;;;;;;;10.89;100.00;99580.19;6318357;22;20662;-81
2022/12/26 11:39:41;;;;;;;18.20;16.50;;;;;;;10.80;100.00;99579.69;6266466;22;20207;-81
2022/12/26 11:42:10;;;;;;;18.50;16.70;;;;;;;10.79;100.00;99567.31;6233263;22;20214;-81
2022/12/26 11:44:44;;;;;;;18.20;16.40;;;;;;;10.73;100.00;99557.47;6264541;22;20253;-81
2022/12/26 11:47:13;;;;;;;17.60;15.90;;;;;;;10.72;100.00;99569.25;6289255;22;20229;-81
2022/12/26 11:49:44;;;;;;;16.83;15.20;;;;;;;10.77;100.00;99568.59;6262361;22;20592;-82
2022/12/26 11:52:29;;;;;;;17.73;16.03;;;;;;;10.69;100.00;99563.50;6286669;22;20215;-81
2022/12/26 11:54:56;;;;;;;16.93;15.33;;;;;;;10.63;100.00;99557.19;6294479;22;20750;-82
2022/12/26 11:57:32;;;;;;;16.03;14.57;;;;;;;10.65;100.00;99563.13;6267116;22;20203;-82
2022/12/26 12:00:15;;;;;;;19.70;17.70;;;;;;;10.56;100.00;99565.28;6292322;22;20207;-82
2022/12/26 12:02:42;;;;;;;16.50;15.00;;;;;;;10.46;100.00;99554.25;6267146;22;20211;-82
2022/12/26 12:05:15;;;;;;;17.57;15.87;;;;;;;10.48;100.00;99564.75;6322132;22;20176;-81
2022/12/26 12:08:03;;;;;;;16.97;15.47;;;;;;;10.47;100.00;99566.59;6290537;22;20203;-82
2022/12/26 12:10:46;;;;;;;16.10;14.60;;;;;;;10.52;100.00;99565.94;6262513;22;20660;-82
2022/12/26 12:13:26;;;;;;;15.93;14.43;;;;;;;10.58;100.00;99563.22;6291108;22;20207;-81
2022/12/26 12:16:11;;;;;;;16.77;15.27;;;;;;;10.57;100.00;99555.38;6290900;22;20187;-82
2022/12/26 12:18:46;;;;;;;16.07;14.57;;;;;;;10.62;100.00;99558.22;6265967;22;20222;-82
2022/12/26 12:21:57;;;;;;;16.10;14.63;;;;;;;10.48;100.00;99551.34;6320246;22;20227;-82
2022/12/26 12:25:19;;;;;;;17.17;15.37;;;;;;;10.43;100.00;99561.91;6166735;23;20202;-81
2022/12/26 12:27:59;;;;;;;16.73;15.13;;;;;;;10.44;100.00;99561.69;6229982;23;20544;-81
2022/12/26 12:30:34;;;;;;;16.90;15.30;;;;;;;10.34;100.00;99545.31;6230283;23;20231;-81
2022/12/26 12:33:32;;;;;;;18.47;16.67;;;;;;;10.28;100.00;99548.84;6301733;22;20211;-82
2022/12/26 12:36:12;;;;;;;17.33;15.63;;;;;;;10.20;100.00;99551.81;6292464;22;20212;-81
2022/12/26 12:38:45;;;;;;;17.73;16.03;;;;;;;10.24;100.00;99557.53;6294377;22;20237;-81
2022/12/26 12:41:51;;;;;;;17.77;16.17;;;;;;;10.09;100.00;99565.88;6295485;22;20190;-83
2022/12/26 12:44:45;;;;;;;17.53;15.83;;;;;;;10.03;100.00;99556.06;6321355;22;20179;-81
2022/12/26 12:47:30;;;;;;;18.00;16.20;;;;;;;9.92;100.00;99556.75;6312024;22;20223;-80
2022/12/26 12:50:00;;;;;;;21.00;18.80;;;;;;;10.00;100.00;99559.97;6290383;22;20231;-81
2022/12/26 12:52:50;;;;;;;21.40;19.23;;;;;;;10.07;100.00;99562.59;6323163;22;20206;-82
2022/12/26 12:55:35;;;;;;;20.43;18.43;;;;;;;10.06;100.00;99556.44;6321751;22;20282;-81
2022/12/26 12:58:14;;;;;;;20.93;18.93;;;;;;;10.06;100.00;99560.97;6321648;22;20282;-80
2022/12/26 13:01:01;;;;;;;20.40;18.47;;;;;;;10.00;100.00;99545.75;6294731;22;20205;-82
2022/12/26 13:03:44;;;;;;;20.23;18.23;;;;;;;9.99;100.00;99546.78;6295887;22;20211;-82
2022/12/26 13:06:15;;;;;;;20.43;18.43;;;;;;;9.97;100.00;99541.69;6271313;22;20234;-81
2022/12/26 13:08:45;;;;;;;21.70;19.60;;;;;;;9.91;100.00;99544.38;6295913;22;20207;-81
2022/12/26 13:11:19;;;;;;;20.43;18.60;;;;;;;9.86;100.00;99539.69;6294797;22;20204;-81
2022/12/26 13:13:51;;;;;;;22.37;20.17;;;;;;;9.79;100.00;99544.28;6267689;22;20207;-82
2022/12/26 13:16:25;;;;;;;23.30;21.00;;;;;;;9.84;100.00;99539.09;6294036;22;20207;-82
2022/12/26 13:19:05;;;;;;;24.03;21.73;;;;;;;9.85;100.00;99526.50;6269486;22;20183;-83
2022/12/26 13:21:35;;;;;;;24.93;22.50;;;;;;;9.87;100.00;99540.50;6321253;22;20245;-82
2022/12/26 13:24:23;;;;;;;25.87;23.37;;;;;;;9.97;100.00;99540.84;6295036;22;20202;-83
2022/12/26 13:26:59;;;;;;;27.03;24.43;;;;;;;9.94;100.00;99554.66;6322814;22;20203;-81
2022/12/26 13:29:39;;;;;;;26.50;23.83;;;;;;;9.89;100.00;99533.88;6323225;22;20203;-81
2022/12/26 13:32:30;;;;;;;25.37;22.77;;;;;;;9.86;100.00;99539.69;6296160;22;20203;-82
2022/12/26 13:34:59;;;;;;;20.23;18.43;;;;;;;9.94;100.00;99543.94;6269952;22;20208;-81
2022/12/26 13:37:34;;;;;;;17.77;16.07;;;;;;;9.95;100.00;99542.91;6321878;22;20203;-82
2022/12/26 13:40:05;;;;;;;18.33;16.53;;;;;;;10.00;100.00;99554.63;6320800;22;20210;-80
2022/12/26 13:45:42;;;;;;;17.73;16.13;;;;;;;10.06;100.00;99547.56;6317506;22;20203;-81
2022/12/26 13:48:17;;;;;;;17.70;16.00;;;;;;;10.01;100.00;99540.19;6289540;22;20213;-81
2022/12/26 13:50:49;;;;;;;17.47;15.80;;;;;;;9.89;100.00;99539.25;6320780;22;20207;-81
2022/12/26 13:53:24;;;;;;;17.03;15.43;;;;;;;9.87;100.00;99544.00;6233443;22;20203;-81
2022/12/26 13:56:34;;;;;;;16.23;14.83;;;;;;;9.85;100.00;99550.59;6306978;22;20231;-82
2022/12/26 13:59:07;;;;;;;17.53;15.93;;;;;;;9.71;100.00;99541.84;6322305;22;20215;-82
2022/12/26 14:06:59;;;;;;;16.23;14.67;;;;;;;9.37;100.00;99540.41;6264233;22;20213;-83
2022/12/26 14:10:05;;;;;;;16.90;15.30;;;;;;;9.35;100.00;99544.31;6321630;22;20199;-82
2022/12/26 14:13:18;;;;;;;17.63;15.97;;;;;;;9.06;100.00;99530.47;6237605;22;20191;-83
2022/12/26 14:25:04;;;;;;;16.30;14.80;;;;;;;8.39;100.00;99529.03;6263162;22;20244;-83
2022/12/26 14:28:36;;;;;;;15.10;13.67;;;;;;;8.25;100.00;99526.56;6275875;22;20219;-83
2022/12/26 14:31:14;;;;;;;15.33;13.73;;;;;;;8.01;100.00;99527.19;6129481;23;20199;-83
2022/12/26 14:34:10;;;;;;;14.10;12.80;;;;;;;7.75;100.00;99538.66;6293442;22;20235;-82
2022/12/26 14:36:56;;;;;;;13.93;12.63;;;;;;;7.61;100.00;99540.47;6287611;22;20219;-82
2022/12/26 14:39:38;;;;;;;14.20;12.70;;;;;;;7.48;100.00;99551.13;6261401;22;20214;-81
2022/12/26 14:44:56;;;;;;;19.17;17.07;;;;;;;7.20;100.00;99545.09;6287389;22;20219;-81
2022/12/26 14:47:42;;;;;;;18.13;16.23;;;;;;;7.08;100.00;99551.00;6235129;22;20259;-82
2022/12/26 14:50:31;;;;;;;18.07;16.27;;;;;;;7.01;100.00;99551.97;6243662;22;20215;-81
2022/12/26 14:53:23;;;;;;;45.47;38.60;;;;;;;6.94;100.00;99538.66;6228490;23;20232;-81
2022/12/26 14:55:52;;;;;;;21.83;19.50;;;;;;;6.87;100.00;99536.94;6253965;22;20210;-81
2022/12/26 14:58:25;;;;;;;17.60;15.80;;;;;;;6.73;100.00;99535.25;6226652;22;20243;-81
2022/12/26 15:00:53;;;;;;;16.30;14.80;;;;;;;6.64;100.00;99546.06;6253781;22;20218;-81
2022/12/26 15:03:57;;;;;;;16.87;15.20;;;;;;;6.60;100.00;99539.50;6253556;22;20208;-81
2022/12/26 15:06:52;;;;;;;15.17;13.67;;;;;;;6.57;100.00;99541.72;6177107;22;20200;-81
2022/12/26 15:09:54;;;;;;;15.00;13.60;;;;;;;6.41;100.00;99545.50;6255580;22;20208;-81
2022/12/26 15:12:36;;;;;;;17.17;15.47;;;;;;;6.37;100.00;99543.44;6131513;23;20262;-81
2022/12/26 15:15:09;;;;;;;15.60;14.10;;;;;;;6.32;100.00;99554.66;6083675;23;20246;-81
2022/12/26 15:17:54;;;;;;;16.07;14.50;;;;;;;6.26;100.00;99541.28;6106618;23;20247;-81
2022/12/26 15:20:36;;;;;;;15.10;13.60;;;;;;;6.28;100.00;99536.63;6182740;22;20208;-80
2022/12/26 15:23:06;;;;;;;14.60;13.20;;;;;;;6.23;100.00;99547.84;6202006;23;20209;-81
2022/12/26 15:25:51;;;;;;;14.97;13.57;;;;;;;6.21;100.00;99549.84;6224034;23;20228;-80
2022/12/26 15:28:31;;;;;;;15.87;14.37;;;;;;;6.16;100.00;99555.75;6221570;23;20237;-81
2022/12/26 15:31:00;;;;;;;15.73;14.23;;;;;;;6.15;100.00;99558.63;6171284;23;20182;-81
2022/12/26 15:33:45;;;;;;;15.73;14.23;;;;;;;6.11;100.00;99546.75;6221960;23;20209;-81
2022/12/26 15:36:24;;;;;;;15.77;14.17;;;;;;;6.05;100.00;99548.31;6207550;23;20205;-81
2022/12/26 15:39:09;;;;;;;15.77;14.27;;;;;;;5.95;100.00;99563.78;6221870;23;20256;-81
2022/12/26 15:41:45;;;;;;;15.17;13.67;;;;;;;5.90;100.00;99557.38;6221226;23;20224;-81
2022/12/26 15:44:41;;;;;;;19.07;17.23;;;;;;;5.94;100.00;99548.00;6221901;23;20195;-81
2022/12/26 15:47:11;;;;;;;15.43;14.03;;;;;;;5.88;100.00;99562.88;6195270;23;20216;-81
2022/12/26 15:49:52;;;;;;;15.97;14.43;;;;;;;5.84;100.00;99553.63;6221959;23;20301;-81
2022/12/26 15:52:44;;;;;;;16.13;14.43;;;;;;;5.78;100.00;99568.50;6196122;23;20189;-81
2022/12/26 15:55:39;;;;;;;15.20;13.70;;;;;;;5.69;100.00;99556.34;6222679;23;20209;-81
2022/12/26 15:58:51;;;;;;;15.97;14.37;;;;;;;5.65;100.00;99544.44;6194410;23;20276;-80
2022/12/26 16:01:37;;;;;;;16.47;14.87;;;;;;;5.61;100.00;99545.00;6225432;23;20208;-81
2022/12/26 16:04:22;;;;;;;16.40;14.80;;;;;;;5.51;100.00;99558.63;6197140;23;20205;-80
2022/12/26 16:07:24;;;;;;;18.33;16.53;;;;;;;5.45;100.00;99567.34;6198266;23;20209;-81
2022/12/26 16:09:55;;;;;;;18.53;16.63;;;;;;;5.35;100.00;99552.72;6224930;23;20181;-81
2022/12/26 16:12:30;;;;;;;18.37;16.60;;;;;;;5.35;100.00;99547.41;6197829;23;20219;-80
2022/12/26 16:15:09;;;;;;;19.03;17.13;;;;;;;5.33;100.00;99569.66;6197015;23;20673;-80
2022/12/26 16:17:37;;;;;;;17.33;15.63;;;;;;;5.41;100.00;99531.56;6223813;23;20283;-81
2022/12/26 16:23:16;;;;;;;16.80;14.97;;;;;;;5.23;100.00;99531.94;6201331;23;20213;-82
2022/12/26 16:25:51;;;;;;;19.67;17.70;;;;;;;5.11;100.00;99541.44;6254561;22;20420;-81
2022/12/26 16:28:23;;;;;;;17.63;15.80;;;;;;;5.10;100.00;99568.97;6226974;22;20231;-80
2022/12/26 16:30:49;;;;;;;16.87;15.10;;;;;;;5.11;100.00;99554.72;6226949;23;20212;-81
2022/12/26 16:33:16;;;;;;;17.40;15.60;;;;;;;5.04;100.00;99584.84;6254594;22;20213;-81
2022/12/26 16:35:44;;;;;;;16.37;14.67;;;;;;;4.91;100.00;99582.00;6259727;22;20243;-81
2022/12/26 16:38:14;;;;;;;16.67;14.97;;;;;;;4.95;100.00;99623.09;6206834;22;20661;-81
2022/12/26 16:40:49;;;;;;;16.77;15.03;;;;;;;4.96;100.00;99662.75;6231194;23;20208;-81
2022/12/26 16:43:25;;;;;;;15.90;14.30;;;;;;;4.70;100.00;99641.16;6232480;23;20184;-81
2022/12/26 16:45:57;;;;;;;16.13;14.47;;;;;;;4.60;100.00;99625.50;6232771;23;20231;-81
2022/12/26 16:48:26;;;;;;;16.03;14.43;;;;;;;4.49;100.00;99607.34;6231451;22;20200;-81
2022/12/26 16:51:02;;;;;;;15.53;14.03;;;;;;;4.36;100.00;99613.28;6231687;23;20257;-81
2022/12/26 16:53:35;;;;;;;16.83;15.03;;;;;;;4.35;100.00;99626.72;6207642;23;20267;-81
2022/12/26 16:56:27;;;;;;;16.60;14.90;;;;;;;4.39;100.00;99620.88;6230996;22;20256;-82
2022/12/26 16:59:04;;;;;;;17.70;15.90;;;;;;;4.35;100.00;99613.44;6203633;22;20208;-81
2022/12/26 17:01:31;;;;;;;16.07;14.47;;;;;;;4.39;100.00;99612.09;6214764;23;20208;-81
2022/12/26 17:04:04;;;;;;;16.43;14.80;;;;;;;4.40;100.00;99603.94;6231674;23;20205;-81
2022/12/26 17:06:33;;;;;;;15.70;14.10;;;;;;;4.44;100.00;99609.72;6207511;23;20205;-81
2022/12/26 17:09:19;;;;;;;14.90;13.40;;;;;;;4.56;100.00;99608.28;6205610;23;20219;-82
2022/12/26 17:11:55;;;;;;;16.60;14.27;;;;;;;4.57;100.00;99604.63;6177905;23;20522;-81
2022/12/26 17:14:29;;;;;;;16.10;14.40;;;;;;;4.63;100.00;99601.22;6232712;23;20173;-81
2022/12/26 17:17:03;;;;;;;15.70;14.20;;;;;;;4.60;100.00;99603.44;6205904;23;20153;-81
2022/12/26 17:19:32;;;;;;;15.57;14.03;;;;;;;4.58;100.00;99602.78;6203413;23;20153;-82
2022/12/26 17:22:13;;;;;;;16.17;14.57;;;;;;;4.65;100.00;99603.72;6230794;23;20160;-81
2022/12/26 17:24:41;;;;;;;39.73;27.47;;;;;;;4.60;100.00;99592.81;6258428;23;20236;-81
2022/12/26 17:27:25;;;;;;;48.97;38.97;;;;;;;4.67;100.00;99594.56;6232700;23;20161;-81
2022/12/26 17:30:02;;;;;;;24.37;21.77;;;;;;;4.70;100.00;99604.00;6219650;23;20164;-82
2022/12/26 17:32:43;;;;;;;22.50;20.17;;;;;;;4.78;100.00;99606.56;6226163;23;20145;-82
2022/12/26 17:35:49;;;;;;;20.73;18.63;;;;;;;4.68;100.00;99595.38;6226756;23;20220;-83
2022/12/26 17:38:40;;;;;;;27.37;24.60;;;;;;;4.67;100.00;99610.47;6237657;23;20177;-82
2022/12/26 17:41:17;;;;;;;26.17;23.37;;;;;;;4.67;100.00;99599.84;6298562;22;20146;-82
2022/12/26 17:43:51;;;;;;;40.50;29.97;;;;;;;4.58;100.00;99605.44;6270026;23;20145;-82
2022/12/26 17:46:34;;;;;;;38.63;29.10;;;;;;;4.63;100.00;99605.72;6226701;23;20145;-82
2022/12/26 17:49:07;;;;;;;36.17;29.83;;;;;;;4.55;100.00;99606.63;6249005;23;20141;-82
2022/12/26 17:51:49;;;;;;;23.33;20.87;;;;;;;4.70;100.00;99609.31;6246560;23;20244;-82
2022/12/26 17:54:38;;;;;;;22.97;19.87;;;;;;;4.62;100.00;99604.09;6218858;23;20204;-81
2022/12/26 17:57:19;;;;;;;22.87;19.37;;;;;;;4.62;100.00;99604.88;6246004;23;20188;-82
2022/12/26 18:00:24;;;;;;;23.73;20.87;;;;;;;4.52;100.00;99598.22;6207098;23;20185;-82
2022/12/26 18:03:18;;;;;;;25.13;22.43;;;;;;;4.50;100.00;99601.03;6230240;23;20228;-82
2022/12/26 18:05:52;;;;;;;30.53;23.90;;;;;;;4.56;100.00;99613.59;6223300;23;20241;-82
2022/12/26 18:08:37;;;;;;;61.93;35.27;;;;;;;4.54;100.00;99620.06;6235023;22;20204;-82
2022/12/26 18:11:11;;;;;;;65.47;33.60;;;;;;;4.56;100.00;99616.25;6223449;23;20189;-83
2022/12/26 18:14:15;;;;;;;57.70;30.17;;;;;;;4.64;100.00;99620.63;6270969;22;20219;-83
2022/12/26 18:16:51;;;;;;;73.63;37.60;;;;;;;4.69;100.00;99634.19;6273733;22;20188;-82
2022/12/26 18:19:22;;;;;;;23.17;17.47;;;;;;;4.78;100.00;99625.97;6196313;23;20195;-82
2022/12/26 18:21:52;;;;;;;27.97;21.10;;;;;;;4.90;100.00;99628.97;6272810;22;20732;-82
2022/12/26 18:24:29;;;;;;;18.03;14.80;;;;;;;4.95;100.00;99639.88;6219758;23;20204;-83
2022/12/26 18:26:58;;;;;;;14.10;12.10;;;;;;;5.03;100.00;99628.34;6242892;23;20154;-81
2022/12/26 18:29:32;;;;;;;10.60;9.50;;;;;;;5.14;100.00;99626.03;6220024;23;20204;-83
2022/12/26 18:32:27;;;;;;;11.50;10.10;;;;;;;5.37;100.00;99627.72;6196786;23;20219;-82
2022/12/26 18:35:00;;;;;;;5.83;5.00;;;;;;;5.91;100.00;99607.72;6217198;23;20181;-83
2022/12/26 18:37:37;;;;;;;3.50;3.20;;;;;;;6.31;100.00;99603.56;6215069;23;20202;-82
2022/12/26 18:40:34;;;;;;;2.13;1.90;;;;;;;6.88;100.00;99599.84;6205156;23;20231;-82
2022/12/26 18:43:03;;;;;;;0.80;0.80;;;;;;;7.48;100.00;99589.25;6210665;23;20185;-83
2022/12/26 18:45:39;;;;;;;0.77;0.50;;;;;;;7.78;100.00;99588.94;6242343;23;20196;-83
2022/12/26 18:48:22;;;;;;;0.40;0.40;;;;;;;8.17;100.00;99594.28;6209023;23;20226;-84
2022/12/26 18:51:01;;;;;;;0.70;0.50;;;;;;;8.86;100.00;99579.69;6218790;23;20225;-83
2022/12/26 18:53:46;;;;;;;0.57;0.40;;;;;;;9.28;100.00;99587.16;6228896;23;20172;-83
2022/12/26 18:59:56;;;;;;;0.43;0.40;;;;;;;10.11;100.00;99588.72;6218467;23;20196;-83
2022/12/26 19:02:41;;;;;;;0.63;0.43;;;;;;;10.09;100.00;99569.38;6217077;22;20180;-83
2022/12/26 19:05:29;;;;;;;0.30;0.30;;;;;;;10.58;100.00;99565.06;6217097;23;20165;-83
2022/12/26 19:08:04;;;;;;;0.30;0.20;;;;;;;10.88;100.00;99562.47;6241179;23;20328;-83
2022/12/26 19:10:59;;;;;;;0.20;0.20;;;;;;;10.86;100.00;99564.56;6260964;23;20188;-83
2022/12/26 19:13:35;;;;;;;0.30;0.20;;;;;;;10.85;100.00;99570.97;6169940;23;20170;-83
2022/12/26 19:16:07;;;;;;;0.40;0.30;;;;;;;10.77;100.00;99566.72;6170420;23;20201;-83
2022/12/26 19:18:40;;;;;;;0.20;0.20;;;;;;;11.05;100.00;99560.84;6194984;23;20146;-82
2022/12/26 19:21:13;;;;;;;0.20;0.20;;;;;;;10.99;100.00;99572.47;6192858;23;20230;-83
2022/12/26 19:23:52;;;;;;;0.20;0.20;;;;;;;11.09;100.00;99571.94;6188162;23;20149;-82
2022/12/26 19:26:57;;;;;;;0.37;0.30;;;;;;;11.26;100.00;99581.84;6235424;22;20171;-83
2022/12/26 19:37:01;;;;;;;0.20;0.20;;;;;;;11.38;100.00;99580.00;6213959;23;20162;-83
2022/12/26 19:39:53;;;;;;;0.10;0.10;;;;;;;11.29;100.00;99581.38;6220271;23;20162;-82
2022/12/26 19:42:28;;;;;;;0.57;0.17;;;;;;;11.36;100.00;99587.50;6192802;23;20165;-83
2022/12/26 19:45:12;;;;;;;0.70;0.20;;;;;;;11.27;100.00;99586.16;6243947;23;20153;-83
2022/12/26 19:52:13;;;;;;;2.93;0.20;;;;;;;11.52;100.00;99566.47;6242726;22;20165;-83
2022/12/26 19:55:08;;;;;;;0.10;0.10;;;;;;;11.60;100.00;99564.28;6221562;22;20261;-83
2022/12/26 19:57:41;;;;;;;0.10;0.10;;;;;;;11.68;100.00;99558.56;6174488;23;20213;-82
2022/12/26 20:00:28;;;;;;;0.50;0.20;;;;;;;11.57;100.00;99570.06;6195904;23;20189;-83
2022/12/26 20:04:13;;;;;;;0.30;0.13;;;;;;;11.63;100.00;99571.03;6200830;23;20227;-83
2022/12/26 20:06:49;;;;;;;0.53;0.20;;;;;;;11.67;100.00;99562.28;6186882;23;20194;-82
2022/12/26 20:09:38;;;;;;;0.50;0.10;;;;;;;11.61;100.00;99567.78;6210307;23;20190;-83
2022/12/26 20:12:49;;;;;;;0.13;0.13;;;;;;;11.61;100.00;99557.88;6208102;23;20217;-84
2022/12/26 20:16:36;;;;;;;0.30;0.10;;;;;;;11.79;100.00;99551.66;6169585;23;20216;-83
2022/12/26 20:20:35;;;;;;;0.30;0.20;;;;;;;11.59;100.00;99551.06;6087497;23;20533;-84
2022/12/26 20:36:47;;;;;;;0.10;0.10;;;;;;;11.73;100.00;99590.94;6225296;22;20204;-87
2022/12/26 20:39:15;;;;;;;0.83;0.30;;;;;;;11.62;100.00;99601.63;6226971;23;20280;-86
2022/12/26 20:41:42;;;;;;;0.63;0.10;;;;;;;11.48;100.00;99603.63;6233780;23;20205;-86
2022/12/26 20:44:12;;;;;;;0.87;0.30;;;;;;;11.35;100.00;99585.84;6199892;23;20742;-88
2022/12/26 20:46:40;;;;;;;0.53;0.47;;;;;;;11.33;100.00;99592.50;6232593;23;20279;-89
2022/12/26 20:49:07;;;;;;;0.50;0.50;;;;;;;11.33;100.00;99589.81;6094948;23;20256;-87
2022/12/26 20:51:35;;;;;;;0.50;0.50;;;;;;;11.19;100.00;99582.97;6219768;23;20214;-88
2022/12/26 20:54:05;;;;;;;0.60;0.50;;;;;;;11.18;100.00;99574.09;6246083;23;21022;-90
2022/12/26 20:56:33;;;;;;;0.40;0.30;;;;;;;11.41;100.00;99570.72;6194528;23;20212;-88
2022/12/26 20:59:00;;;;;;;0.10;0.10;;;;;;;11.53;100.00;99576.94;6247924;23;20217;-87
2022/12/26 21:01:27;;;;;;;0.23;0.10;;;;;;;11.62;100.00;99574.78;6220237;23;20210;-87
2022/12/26 21:03:55;;;;;;;0.10;0.10;;;;;;;11.82;100.00;99569.97;6226646;23;20549;-86
2022/12/26 21:06:33;;;;;;;0.10;0.10;;;;;;;11.88;100.00;99561.00;6227215;23;20217;-87
2022/12/26 21:09:01;;;;;;;0.10;0.10;;;;;;;11.75;100.00;99559.34;6231933;23;20209;-86
2022/12/26 21:11:36;;;;;;;0.20;0.20;;;;;;;11.62;100.00;99566.72;6221050;23;20196;-87
2022/12/26 21:14:15;;;;;;;0.37;0.20;;;;;;;11.74;100.00;99563.06;6219150;23;20204;-88